sensor_id;sensor_type;location;lat;lon;timestamp;temperature;humidity
35381;DHT22;21486;51.916;8.378;2023-03-03T00:00:39;1.50;99.90
35381;DHT22;21486;51.916;8.378;2023-03-03T00:03:06;1.50;99.90
35381;DHT22;21486;51.916;8.378;2023-03-03T00:05:32;1.50;99.90
35381;DHT22;21486;51.916;8.378;2023-03-03T00:07:58;1.60;99.90
35381;DHT22;21486;51.916;8.378;2023-03-03T00:10:24;1.50;99.90
35381;DHT22;21486;51.916;8.378;2023-03-03T00:12:49;1.50;99.90
35381;DHT22;21486;51.916;8.378;2023-03-03T00:15:22;1.60;99.90
35381;DHT22;21486;51.916;8.378;2023-03-03T00:17:48;1.60;99.90
35381;DHT22;21486;51.916;8.378;2023-03-03T00:20:47;1.60;99.90
35381;DHT22;21486;51.916;8.378;2023-03-03T00:23:19;1.60;99.90
35381;DHT22;21486;51.916;8.378;2023-03-03T00:25:50;1.70;99.90
35381;DHT22;21486;51.916;8.378;2023-03-03T00:28:19;1.70;99.90
35381;DHT22;21486;51.916;8.378;2023-03-03T00:30:46;1.70;99.90
35381;DHT22;21486;51.916;8.378;2023-03-03T00:33:18;1.70;99.80
35381;DHT22;21486;51.916;8.378;2023-03-03T00:35:44;1.70;99.50
35381;DHT22;21486;51.916;8.378;2023-03-03T00:38:13;1.80;99.50
35381;DHT22;21486;51.916;8.378;2023-03-03T00:40:40;1.70;99.50
35381;DHT22;21486;51.916;8.378;2023-03-03T00:45:44;1.70;99.70
35381;DHT22;21486;51.916;8.378;2023-03-03T00:48:20;1.60;99.60
35381;DHT22;21486;51.916;8.378;2023-03-03T00:50:46;1.60;99.70
35381;DHT22;21486;51.916;8.378;2023-03-03T00:53:13;1.70;99.60
35381;DHT22;21486;51.916;8.378;2023-03-03T00:55:41;1.70;99.50
35381;DHT22;21486;51.916;8.378;2023-03-03T00:58:07;1.60;99.70
35381;DHT22;21486;51.916;8.378;2023-03-03T01:00:32;1.60;99.70
35381;DHT22;21486;51.916;8.378;2023-03-03T01:02:59;1.70;99.70
35381;DHT22;21486;51.916;8.378;2023-03-03T01:05:26;1.70;99.80
35381;DHT22;21486;51.916;8.378;2023-03-03T01:07:51;1.80;99.70
35381;DHT22;21486;51.916;8.378;2023-03-03T01:10:17;1.80;99.60
35381;DHT22;21486;51.916;8.378;2023-03-03T01:12:42;1.70;99.40
35381;DHT22;21486;51.916;8.378;2023-03-03T01:15:08;1.70;99.60
35381;DHT22;21486;51.916;8.378;2023-03-03T01:17:34;2.10;98.90
35381;DHT22;21486;51.916;8.378;2023-03-03T01:20:00;2.10;98.50
35381;DHT22;21486;51.916;8.378;2023-03-03T01:22:25;2.10;98.20
35381;DHT22;21486;51.916;8.378;2023-03-03T01:24:51;2.10;97.80
35381;DHT22;21486;51.916;8.378;2023-03-03T01:27:16;2.20;97.70
35381;DHT22;21486;51.916;8.378;2023-03-03T01:29:42;2.20;97.60
35381;DHT22;21486;51.916;8.378;2023-03-03T01:33:04;2.20;97.40
35381;DHT22;21486;51.916;8.378;2023-03-03T01:35:30;2.20;97.70
35381;DHT22;21486;51.916;8.378;2023-03-03T01:37:55;2.10;97.60
35381;DHT22;21486;51.916;8.378;2023-03-03T01:40:26;2.00;98.00
35381;DHT22;21486;51.916;8.378;2023-03-03T01:42:52;1.90;98.20
35381;DHT22;21486;51.916;8.378;2023-03-03T01:45:40;1.80;98.20
35381;DHT22;21486;51.916;8.378;2023-03-03T01:48:16;1.90;98.20
35381;DHT22;21486;51.916;8.378;2023-03-03T01:50:59;1.90;98.00
35381;DHT22;21486;51.916;8.378;2023-03-03T01:53:34;2.00;98.30
35381;DHT22;21486;51.916;8.378;2023-03-03T01:56:02;2.00;98.20
35381;DHT22;21486;51.916;8.378;2023-03-03T01:58:42;2.00;97.70
35381;DHT22;21486;51.916;8.378;2023-03-03T02:01:13;2.00;97.70
35381;DHT22;21486;51.916;8.378;2023-03-03T02:03:40;2.00;97.60
35381;DHT22;21486;51.916;8.378;2023-03-03T02:06:10;1.90;97.50
35381;DHT22;21486;51.916;8.378;2023-03-03T02:11:10;1.80;98.30
35381;DHT22;21486;51.916;8.378;2023-03-03T02:13:36;1.80;98.60
35381;DHT22;21486;51.916;8.378;2023-03-03T02:16:02;1.90;97.80
35381;DHT22;21486;51.916;8.378;2023-03-03T02:18:28;1.80;97.50
35381;DHT22;21486;51.916;8.378;2023-03-03T02:26:15;1.90;97.70
35381;DHT22;21486;51.916;8.378;2023-03-03T02:28:42;1.80;97.70
35381;DHT22;21486;51.916;8.378;2023-03-03T02:31:11;1.80;97.60
35381;DHT22;21486;51.916;8.378;2023-03-03T02:33:39;1.90;97.80
35381;DHT22;21486;51.916;8.378;2023-03-03T02:36:04;1.80;97.90
35381;DHT22;21486;51.916;8.378;2023-03-03T02:38:50;1.90;97.50
35381;DHT22;21486;51.916;8.378;2023-03-03T02:42:37;1.90;97.50
35381;DHT22;21486;51.916;8.378;2023-03-03T02:44:32;1.90;97.80
35381;DHT22;21486;51.916;8.378;2023-03-03T02:46:58;1.90;97.50
35381;DHT22;21486;51.916;8.378;2023-03-03T02:49:29;1.90;97.70
35381;DHT22;21486;51.916;8.378;2023-03-03T02:51:59;2.10;97.30
35381;DHT22;21486;51.916;8.378;2023-03-03T02:54:27;2.20;95.90
35381;DHT22;21486;51.916;8.378;2023-03-03T02:56:54;2.10;96.70
35381;DHT22;21486;51.916;8.378;2023-03-03T02:59:20;2.00;96.80
35381;DHT22;21486;51.916;8.378;2023-03-03T03:01:46;2.00;96.70
35381;DHT22;21486;51.916;8.378;2023-03-03T03:04:18;2.00;96.80
35381;DHT22;21486;51.916;8.378;2023-03-03T03:06:44;2.20;96.30
35381;DHT22;21486;51.916;8.378;2023-03-03T03:09:11;2.20;95.80
35381;DHT22;21486;51.916;8.378;2023-03-03T03:11:37;2.30;96.30
35381;DHT22;21486;51.916;8.378;2023-03-03T03:14:05;2.40;95.60
35381;DHT22;21486;51.916;8.378;2023-03-03T03:16:31;2.40;95.50
35381;DHT22;21486;51.916;8.378;2023-03-03T03:18:58;2.40;95.40
35381;DHT22;21486;51.916;8.378;2023-03-03T03:21:24;2.30;95.50
35381;DHT22;21486;51.916;8.378;2023-03-03T03:23:49;2.20;95.80
35381;DHT22;21486;51.916;8.378;2023-03-03T03:26:15;2.00;96.20
35381;DHT22;21486;51.916;8.378;2023-03-03T03:28:40;2.00;96.40
35381;DHT22;21486;51.916;8.378;2023-03-03T03:31:07;1.90;96.80
35381;DHT22;21486;51.916;8.378;2023-03-03T03:33:33;2.00;96.90
35381;DHT22;21486;51.916;8.378;2023-03-03T03:35:58;1.90;96.80
35381;DHT22;21486;51.916;8.378;2023-03-03T03:38:25;1.90;97.10
35381;DHT22;21486;51.916;8.378;2023-03-03T03:40:52;1.80;97.40
35381;DHT22;21486;51.916;8.378;2023-03-03T03:43:18;1.90;97.30
35381;DHT22;21486;51.916;8.378;2023-03-03T03:45:44;1.80;97.60
35381;DHT22;21486;51.916;8.378;2023-03-03T03:48:10;1.80;97.70
35381;DHT22;21486;51.916;8.378;2023-03-03T03:50:36;1.80;97.70
35381;DHT22;21486;51.916;8.378;2023-03-03T03:53:02;1.90;98.00
35381;DHT22;21486;51.916;8.378;2023-03-03T03:55:28;1.90;97.60
35381;DHT22;21486;51.916;8.378;2023-03-03T03:57:55;1.90;97.90
35381;DHT22;21486;51.916;8.378;2023-03-03T04:00:21;1.90;97.50
35381;DHT22;21486;51.916;8.378;2023-03-03T04:02:47;2.00;96.70
35381;DHT22;21486;51.916;8.378;2023-03-03T04:05:13;1.90;97.30
35381;DHT22;21486;51.916;8.378;2023-03-03T04:07:39;2.00;97.10
35381;DHT22;21486;51.916;8.378;2023-03-03T04:10:04;2.00;96.80
35381;DHT22;21486;51.916;8.378;2023-03-03T04:12:30;2.10;97.10
35381;DHT22;21486;51.916;8.378;2023-03-03T04:15:07;2.00;96.90
35381;DHT22;21486;51.916;8.378;2023-03-03T04:17:33;2.00;97.00
35381;DHT22;21486;51.916;8.378;2023-03-03T04:19:59;2.20;96.40
35381;DHT22;21486;51.916;8.378;2023-03-03T04:22:25;2.10;96.00
35381;DHT22;21486;51.916;8.378;2023-03-03T04:24:50;2.10;96.30
35381;DHT22;21486;51.916;8.378;2023-03-03T04:27:16;1.90;96.50
35381;DHT22;21486;51.916;8.378;2023-03-03T04:29:42;1.90;96.80
35381;DHT22;21486;51.916;8.378;2023-03-03T04:32:07;1.80;96.80
35381;DHT22;21486;51.916;8.378;2023-03-03T04:34:33;1.90;96.60
35381;DHT22;21486;51.916;8.378;2023-03-03T04:36:58;1.80;96.80
35381;DHT22;21486;51.916;8.378;2023-03-03T04:39:24;1.90;96.30
35381;DHT22;21486;51.916;8.378;2023-03-03T04:41:51;1.90;96.50
35381;DHT22;21486;51.916;8.378;2023-03-03T04:44:17;1.80;96.20
35381;DHT22;21486;51.916;8.378;2023-03-03T04:46:42;1.80;96.90
35381;DHT22;21486;51.916;8.378;2023-03-03T04:49:08;1.80;96.40
35381;DHT22;21486;51.916;8.378;2023-03-03T04:51:34;1.70;96.70
35381;DHT22;21486;51.916;8.378;2023-03-03T04:53:59;1.60;97.00
35381;DHT22;21486;51.916;8.378;2023-03-03T04:56:25;1.50;97.40
35381;DHT22;21486;51.916;8.378;2023-03-03T04:58:51;1.60;97.60
35381;DHT22;21486;51.916;8.378;2023-03-03T05:01:17;1.80;97.20
35381;DHT22;21486;51.916;8.378;2023-03-03T05:03:44;1.80;96.50
35381;DHT22;21486;51.916;8.378;2023-03-03T05:06:10;1.80;96.80
35381;DHT22;21486;51.916;8.378;2023-03-03T05:08:35;1.70;96.60
35381;DHT22;21486;51.916;8.378;2023-03-03T05:11:01;1.60;96.70
35381;DHT22;21486;51.916;8.378;2023-03-03T05:13:27;1.80;96.50
35381;DHT22;21486;51.916;8.378;2023-03-03T05:15:54;1.80;96.20
35381;DHT22;21486;51.916;8.378;2023-03-03T05:18:21;1.70;96.00
35381;DHT22;21486;51.916;8.378;2023-03-03T05:20:48;1.70;96.20
35381;DHT22;21486;51.916;8.378;2023-03-03T05:23:14;1.50;96.40
35381;DHT22;21486;51.916;8.378;2023-03-03T05:25:40;1.40;96.90
35381;DHT22;21486;51.916;8.378;2023-03-03T05:28:07;1.40;96.90
35381;DHT22;21486;51.916;8.378;2023-03-03T05:30:33;1.30;97.30
35381;DHT22;21486;51.916;8.378;2023-03-03T05:32:59;1.30;97.40
35381;DHT22;21486;51.916;8.378;2023-03-03T05:35:25;1.20;97.70
35381;DHT22;21486;51.916;8.378;2023-03-03T05:37:51;1.20;97.90
35381;DHT22;21486;51.916;8.378;2023-03-03T05:40:17;1.10;98.30
35381;DHT22;21486;51.916;8.378;2023-03-03T05:42:43;1.00;98.50
35381;DHT22;21486;51.916;8.378;2023-03-03T05:45:09;1.00;98.70
35381;DHT22;21486;51.916;8.378;2023-03-03T05:47:35;1.00;98.80
35381;DHT22;21486;51.916;8.378;2023-03-03T05:50:00;1.00;99.10
35381;DHT22;21486;51.916;8.378;2023-03-03T05:52:26;1.00;99.10
35381;DHT22;21486;51.916;8.378;2023-03-03T05:54:52;1.00;99.30
35381;DHT22;21486;51.916;8.378;2023-03-03T05:57:17;1.00;99.30
35381;DHT22;21486;51.916;8.378;2023-03-03T05:59:43;1.10;99.50
35381;DHT22;21486;51.916;8.378;2023-03-03T06:02:08;1.10;99.20
35381;DHT22;21486;51.916;8.378;2023-03-03T06:04:34;1.00;99.40
35381;DHT22;21486;51.916;8.378;2023-03-03T06:06:59;1.10;99.70
35381;DHT22;21486;51.916;8.378;2023-03-03T06:09:25;1.10;99.70
35381;DHT22;21486;51.916;8.378;2023-03-03T06:11:51;1.10;99.90
35381;DHT22;21486;51.916;8.378;2023-03-03T06:14:20;1.30;99.20
35381;DHT22;21486;51.916;8.378;2023-03-03T06:16:46;1.60;98.60
35381;DHT22;21486;51.916;8.378;2023-03-03T06:19:12;1.60;98.20
35381;DHT22;21486;51.916;8.378;2023-03-03T06:21:39;1.60;98.20
35381;DHT22;21486;51.916;8.378;2023-03-03T06:24:04;1.50;98.50
35381;DHT22;21486;51.916;8.378;2023-03-03T06:26:31;1.60;98.00
35381;DHT22;21486;51.916;8.378;2023-03-03T06:28:57;1.60;98.50
35381;DHT22;21486;51.916;8.378;2023-03-03T06:31:23;1.40;98.60
35381;DHT22;21486;51.916;8.378;2023-03-03T06:33:48;1.50;99.00
35381;DHT22;21486;51.916;8.378;2023-03-03T06:36:14;1.50;98.70
35381;DHT22;21486;51.916;8.378;2023-03-03T06:38:39;1.40;98.30
35381;DHT22;21486;51.916;8.378;2023-03-03T06:41:05;1.50;98.70
35381;DHT22;21486;51.916;8.378;2023-03-03T06:43:33;1.30;99.10
35381;DHT22;21486;51.916;8.378;2023-03-03T06:45:59;1.40;99.40
35381;DHT22;21486;51.916;8.378;2023-03-03T06:48:25;1.60;98.80
35381;DHT22;21486;51.916;8.378;2023-03-03T06:50:50;1.80;98.00
35381;DHT22;21486;51.916;8.378;2023-03-03T06:53:17;1.70;97.80
35381;DHT22;21486;51.916;8.378;2023-03-03T06:55:43;1.70;98.10
35381;DHT22;21486;51.916;8.378;2023-03-03T06:58:15;1.60;98.00
35381;DHT22;21486;51.916;8.378;2023-03-03T07:00:43;1.60;98.20
35381;DHT22;21486;51.916;8.378;2023-03-03T07:03:16;1.60;98.40
35381;DHT22;21486;51.916;8.378;2023-03-03T07:05:42;1.60;98.20
35381;DHT22;21486;51.916;8.378;2023-03-03T07:08:19;1.70;97.80
35381;DHT22;21486;51.916;8.378;2023-03-03T07:10:46;1.80;98.00
35381;DHT22;21486;51.916;8.378;2023-03-03T07:13:25;1.80;97.40
35381;DHT22;21486;51.916;8.378;2023-03-03T07:15:52;1.80;97.60
35381;DHT22;21486;51.916;8.378;2023-03-03T07:18:56;1.70;97.80
35381;DHT22;21486;51.916;8.378;2023-03-03T07:21:34;1.70;98.40
35381;DHT22;21486;51.916;8.378;2023-03-03T07:24:29;1.70;98.10
35381;DHT22;21486;51.916;8.378;2023-03-03T07:27:10;1.90;97.70
35381;DHT22;21486;51.916;8.378;2023-03-03T07:29:37;1.90;97.50
35381;DHT22;21486;51.916;8.378;2023-03-03T07:32:27;1.80;97.30
35381;DHT22;21486;51.916;8.378;2023-03-03T07:34:58;1.70;97.80
35381;DHT22;21486;51.916;8.378;2023-03-03T07:37:38;1.50;97.90
35381;DHT22;21486;51.916;8.378;2023-03-03T07:40:26;1.40;98.00
35381;DHT22;21486;51.916;8.378;2023-03-03T07:42:53;1.30;98.70
35381;DHT22;21486;51.916;8.378;2023-03-03T07:45:26;1.30;98.40
35381;DHT22;21486;51.916;8.378;2023-03-03T07:48:18;1.30;97.80
35381;DHT22;21486;51.916;8.378;2023-03-03T07:50:48;1.30;97.70
35381;DHT22;21486;51.916;8.378;2023-03-03T07:53:26;1.30;97.40
35381;DHT22;21486;51.916;8.378;2023-03-03T07:55:53;1.20;97.40
35381;DHT22;21486;51.916;8.378;2023-03-03T07:58:33;1.30;97.80
35381;DHT22;21486;51.916;8.378;2023-03-03T08:03:50;1.50;97.50
35381;DHT22;21486;51.916;8.378;2023-03-03T08:11:44;1.80;96.50
35381;DHT22;21486;51.916;8.378;2023-03-03T08:14:14;1.90;95.80
35381;DHT22;21486;51.916;8.378;2023-03-03T08:16:40;1.60;95.80
35381;DHT22;21486;51.916;8.378;2023-03-03T08:19:06;1.50;96.40
35381;DHT22;21486;51.916;8.378;2023-03-03T08:21:32;1.50;96.80
35381;DHT22;21486;51.916;8.378;2023-03-03T08:23:59;1.40;96.70
35381;DHT22;21486;51.916;8.378;2023-03-03T08:26:25;1.50;96.90
35381;DHT22;21486;51.916;8.378;2023-03-03T08:28:52;1.50;96.70
35381;DHT22;21486;51.916;8.378;2023-03-03T08:31:18;1.50;96.50
35381;DHT22;21486;51.916;8.378;2023-03-03T08:33:44;1.60;96.60
35381;DHT22;21486;51.916;8.378;2023-03-03T08:36:10;1.70;96.50
35381;DHT22;21486;51.916;8.378;2023-03-03T08:38:37;1.80;96.00
35381;DHT22;21486;51.916;8.378;2023-03-03T08:41:03;1.80;96.10
35381;DHT22;21486;51.916;8.378;2023-03-03T08:43:28;1.90;96.10
35381;DHT22;21486;51.916;8.378;2023-03-03T08:45:57;2.30;95.10
35381;DHT22;21486;51.916;8.378;2023-03-03T08:48:24;2.40;94.80
35381;DHT22;21486;51.916;8.378;2023-03-03T08:50:50;2.30;94.20
35381;DHT22;21486;51.916;8.378;2023-03-03T08:53:17;2.20;94.40
35381;DHT22;21486;51.916;8.378;2023-03-03T08:55:43;2.40;95.00
35381;DHT22;21486;51.916;8.378;2023-03-03T08:58:08;2.40;94.20
35381;DHT22;21486;51.916;8.378;2023-03-03T09:00:34;2.40;94.60
35381;DHT22;21486;51.916;8.378;2023-03-03T09:03:00;2.40;94.00
35381;DHT22;21486;51.916;8.378;2023-03-03T09:05:26;2.50;94.10
35381;DHT22;21486;51.916;8.378;2023-03-03T09:07:52;2.70;93.40
35381;DHT22;21486;51.916;8.378;2023-03-03T09:10:21;2.60;93.30
35381;DHT22;21486;51.916;8.378;2023-03-03T09:12:52;2.60;93.50
35381;DHT22;21486;51.916;8.378;2023-03-03T09:15:33;2.80;92.60
35381;DHT22;21486;51.916;8.378;2023-03-03T09:18:10;3.00;92.30
35381;DHT22;21486;51.916;8.378;2023-03-03T09:20:38;3.10;92.10
35381;DHT22;21486;51.916;8.378;2023-03-03T09:25:51;2.90;91.30
35381;DHT22;21486;51.916;8.378;2023-03-03T09:28:28;3.20;91.10
35381;DHT22;21486;51.916;8.378;2023-03-03T09:31:00;3.20;90.80
35381;DHT22;21486;51.916;8.378;2023-03-03T09:33:46;3.30;90.80
35381;DHT22;21486;51.916;8.378;2023-03-03T09:36:35;3.20;90.90
35381;DHT22;21486;51.916;8.378;2023-03-03T09:39:15;3.30;90.20
35381;DHT22;21486;51.916;8.378;2023-03-03T09:44:39;3.10;90.20
35381;DHT22;21486;51.916;8.378;2023-03-03T09:52:41;2.90;90.70
35381;DHT22;21486;51.916;8.378;2023-03-03T10:03:58;2.80;90.80
35381;DHT22;21486;51.916;8.378;2023-03-03T10:11:45;2.80;91.00
35381;DHT22;21486;51.916;8.378;2023-03-03T10:14:37;3.10;91.20
35381;DHT22;21486;51.916;8.378;2023-03-03T10:23:14;4.20;86.00
35381;DHT22;21486;51.916;8.378;2023-03-03T10:25:50;4.60;82.60
35381;DHT22;21486;51.916;8.378;2023-03-03T10:33:50;4.90;82.20
35381;DHT22;21486;51.916;8.378;2023-03-03T10:36:33;5.20;80.60
35381;DHT22;21486;51.916;8.378;2023-03-03T10:41:44;5.40;78.80
35381;DHT22;21486;51.916;8.378;2023-03-03T10:44:26;5.30;78.30
35381;DHT22;21486;51.916;8.378;2023-03-03T10:55:03;5.00;80.50
35381;DHT22;21486;51.916;8.378;2023-03-03T10:57:37;5.00;82.00
35381;DHT22;21486;51.916;8.378;2023-03-03T11:02:44;5.10;80.20
35381;DHT22;21486;51.916;8.378;2023-03-03T11:05:26;5.30;80.00
35381;DHT22;21486;51.916;8.378;2023-03-03T11:07:57;5.30;79.20
35381;DHT22;21486;51.916;8.378;2023-03-03T11:13:00;5.00;80.40
35381;DHT22;21486;51.916;8.378;2023-03-03T11:15:35;5.00;80.30
35381;DHT22;21486;51.916;8.378;2023-03-03T11:20:54;5.10;80.10
35381;DHT22;21486;51.916;8.378;2023-03-03T11:26:23;5.10;79.50
35381;DHT22;21486;51.916;8.378;2023-03-03T11:28:59;5.20;80.10
35381;DHT22;21486;51.916;8.378;2023-03-03T11:31:30;5.40;78.60
35381;DHT22;21486;51.916;8.378;2023-03-03T11:37:08;5.50;78.00
35381;DHT22;21486;51.916;8.378;2023-03-03T11:39:34;5.50;77.20
35381;DHT22;21486;51.916;8.378;2023-03-03T11:44:58;5.50;76.80
35381;DHT22;21486;51.916;8.378;2023-03-03T11:47:30;5.60;77.60
35381;DHT22;21486;51.916;8.378;2023-03-03T11:50:19;6.10;78.40
35381;DHT22;21486;51.916;8.378;2023-03-03T11:52:58;6.70;74.30
35381;DHT22;21486;51.916;8.378;2023-03-03T11:55:34;7.10;71.70
35381;DHT22;21486;51.916;8.378;2023-03-03T11:58:30;7.10;71.70
35381;DHT22;21486;51.916;8.378;2023-03-03T12:01:19;7.30;71.10
35381;DHT22;21486;51.916;8.378;2023-03-03T12:14:04;6.50;74.90
35381;DHT22;21486;51.916;8.378;2023-03-03T12:17:17;6.90;73.60
35381;DHT22;21486;51.916;8.378;2023-03-03T12:25:04;6.10;78.00
35381;DHT22;21486;51.916;8.378;2023-03-03T12:27:53;6.00;78.50
35381;DHT22;21486;51.916;8.378;2023-03-03T12:36:12;6.20;77.60
35381;DHT22;21486;51.916;8.378;2023-03-03T12:41:33;6.60;76.20
35381;DHT22;21486;51.916;8.378;2023-03-03T12:44:23;6.70;76.00
35381;DHT22;21486;51.916;8.378;2023-03-03T12:47:14;7.10;74.90
35381;DHT22;21486;51.916;8.378;2023-03-03T12:52:55;7.10;73.20
35381;DHT22;21486;51.916;8.378;2023-03-03T12:55:47;7.00;73.20
35381;DHT22;21486;51.916;8.378;2023-03-03T13:03:39;6.10;76.20
35381;DHT22;21486;51.916;8.378;2023-03-03T13:06:10;6.10;77.30
35381;DHT22;21486;51.916;8.378;2023-03-03T13:13:51;6.80;72.50
35381;DHT22;21486;51.916;8.378;2023-03-03T13:16:23;7.20;71.50
35381;DHT22;21486;51.916;8.378;2023-03-03T13:19:03;7.30;71.10
35381;DHT22;21486;51.916;8.378;2023-03-03T13:27:15;6.60;75.10
35381;DHT22;21486;51.916;8.378;2023-03-03T13:29:39;6.50;75.30
35381;DHT22;21486;51.916;8.378;2023-03-03T13:32:11;6.40;75.20
35381;DHT22;21486;51.916;8.378;2023-03-03T13:34:42;6.70;75.20
35381;DHT22;21486;51.916;8.378;2023-03-03T13:37:21;7.40;71.30
35381;DHT22;21486;51.916;8.378;2023-03-03T13:40:01;7.80;70.70
35381;DHT22;21486;51.916;8.378;2023-03-03T13:42:31;8.10;67.60
35381;DHT22;21486;51.916;8.378;2023-03-03T13:44:57;7.90;68.60
35381;DHT22;21486;51.916;8.378;2023-03-03T13:47:29;7.50;70.20
35381;DHT22;21486;51.916;8.378;2023-03-03T13:50:02;7.50;70.20
35381;DHT22;21486;51.916;8.378;2023-03-03T13:52:34;7.50;70.70
35381;DHT22;21486;51.916;8.378;2023-03-03T13:55:25;7.50;70.60
35381;DHT22;21486;51.916;8.378;2023-03-03T14:05:36;6.30;74.70
35381;DHT22;21486;51.916;8.378;2023-03-03T14:08:22;6.00;75.40
35381;DHT22;21486;51.916;8.378;2023-03-03T14:14:11;5.90;77.50
35381;DHT22;21486;51.916;8.378;2023-03-03T14:16:14;5.90;77.80
35381;DHT22;21486;51.916;8.378;2023-03-03T14:18:49;5.90;77.90
35381;DHT22;21486;51.916;8.378;2023-03-03T14:21:19;5.50;78.70
35381;DHT22;21486;51.916;8.378;2023-03-03T14:26:44;5.40;81.40
35381;DHT22;21486;51.916;8.378;2023-03-03T14:29:15;5.60;81.50
35381;DHT22;21486;51.916;8.378;2023-03-03T14:31:43;5.50;80.00
35381;DHT22;21486;51.916;8.378;2023-03-03T14:34:25;5.50;80.80
35381;DHT22;21486;51.916;8.378;2023-03-03T14:36:58;5.50;80.30
35381;DHT22;21486;51.916;8.378;2023-03-03T14:39:27;5.80;80.70
35381;DHT22;21486;51.916;8.378;2023-03-03T14:41:54;5.70;78.90
35381;DHT22;21486;51.916;8.378;2023-03-03T14:45:12;5.80;79.70
35381;DHT22;21486;51.916;8.378;2023-03-03T14:49:46;5.50;80.60
35381;DHT22;21486;51.916;8.378;2023-03-03T14:54:44;5.30;81.30
35381;DHT22;21486;51.916;8.378;2023-03-03T14:57:12;5.40;81.00
35381;DHT22;21486;51.916;8.378;2023-03-03T14:59:39;5.40;80.20
35381;DHT22;21486;51.916;8.378;2023-03-03T15:02:23;5.40;79.90
35381;DHT22;21486;51.916;8.378;2023-03-03T15:04:52;5.40;80.20
35381;DHT22;21486;51.916;8.378;2023-03-03T15:07:37;5.30;80.50
35381;DHT22;21486;51.916;8.378;2023-03-03T15:10:03;5.30;80.70
35381;DHT22;21486;51.916;8.378;2023-03-03T15:17:34;5.00;83.10
35381;DHT22;21486;51.916;8.378;2023-03-03T15:25:46;5.00;83.90
35381;DHT22;21486;51.916;8.378;2023-03-03T15:30:50;5.00;84.40
35381;DHT22;21486;51.916;8.378;2023-03-03T15:36:00;5.00;85.20
35381;DHT22;21486;51.916;8.378;2023-03-03T15:38:42;4.80;85.90
35381;DHT22;21486;51.916;8.378;2023-03-03T15:41:14;4.90;85.60
35381;DHT22;21486;51.916;8.378;2023-03-03T15:43:54;4.80;86.00
35381;DHT22;21486;51.916;8.378;2023-03-03T15:51:41;4.70;86.10
35381;DHT22;21486;51.916;8.378;2023-03-03T15:56:50;4.80;85.50
35381;DHT22;21486;51.916;8.378;2023-03-03T15:59:23;4.80;85.10
35381;DHT22;21486;51.916;8.378;2023-03-03T16:04:27;4.70;85.50
35381;DHT22;21486;51.916;8.378;2023-03-03T16:09:53;4.60;87.10
35381;DHT22;21486;51.916;8.378;2023-03-03T16:14:52;4.40;87.10
35381;DHT22;21486;51.916;8.378;2023-03-03T16:27:42;4.20;88.60
35381;DHT22;21486;51.916;8.378;2023-03-03T16:30:12;4.20;89.10
35381;DHT22;21486;51.916;8.378;2023-03-03T16:32:49;4.20;89.50
35381;DHT22;21486;51.916;8.378;2023-03-03T16:35:22;4.00;90.00
35381;DHT22;21486;51.916;8.378;2023-03-03T16:37:56;4.00;90.10
35381;DHT22;21486;51.916;8.378;2023-03-03T16:40:23;3.90;90.40
35381;DHT22;21486;51.916;8.378;2023-03-03T16:43:04;3.90;90.40
35381;DHT22;21486;51.916;8.378;2023-03-03T16:45:37;3.90;90.50
35381;DHT22;21486;51.916;8.378;2023-03-03T16:50:43;3.80;90.60
35381;DHT22;21486;51.916;8.378;2023-03-03T16:56:08;3.60;91.10
35381;DHT22;21486;51.916;8.378;2023-03-03T17:03:37;3.50;91.20
35381;DHT22;21486;51.916;8.378;2023-03-03T17:06:11;3.40;91.60
35381;DHT22;21486;51.916;8.378;2023-03-03T17:11:15;3.10;92.80
35381;DHT22;21486;51.916;8.378;2023-03-03T17:16:11;3.00;93.10
35381;DHT22;21486;51.916;8.378;2023-03-03T17:21:07;2.80;93.60
35381;DHT22;21486;51.916;8.378;2023-03-03T17:26:28;2.80;94.20
35381;DHT22;21486;51.916;8.378;2023-03-03T17:34:26;2.60;94.80
35381;DHT22;21486;51.916;8.378;2023-03-03T17:37:19;2.60;94.80
35381;DHT22;21486;51.916;8.378;2023-03-03T17:39:53;2.60;95.20
35381;DHT22;21486;51.916;8.378;2023-03-03T17:42:24;2.50;95.40
35381;DHT22;21486;51.916;8.378;2023-03-03T17:44:56;2.50;95.70
35381;DHT22;21486;51.916;8.378;2023-03-03T17:52:38;2.30;96.10
35381;DHT22;21486;51.916;8.378;2023-03-03T18:03:03;2.40;96.90
35381;DHT22;21486;51.916;8.378;2023-03-03T18:11:04;2.50;96.70
35381;DHT22;21486;51.916;8.378;2023-03-03T18:16:24;2.70;96.30
35381;DHT22;21486;51.916;8.378;2023-03-03T18:19:01;2.70;96.40
35381;DHT22;21486;51.916;8.378;2023-03-03T18:24:14;2.80;96.30
35381;DHT22;21486;51.916;8.378;2023-03-03T18:26:49;2.90;96.10
35381;DHT22;21486;51.916;8.378;2023-03-03T18:31:45;3.00;95.70
35381;DHT22;21486;51.916;8.378;2023-03-03T18:44:41;3.20;94.70
35381;DHT22;21486;51.916;8.378;2023-03-03T18:47:07;3.30;94.40
35381;DHT22;21486;51.916;8.378;2023-03-03T18:54:42;3.30;94.20
35381;DHT22;21486;51.916;8.378;2023-03-03T18:57:22;3.30;94.30
35381;DHT22;21486;51.916;8.378;2023-03-03T18:59:52;3.30;94.30
35381;DHT22;21486;51.916;8.378;2023-03-03T19:04:48;3.30;94.50
35381;DHT22;21486;51.916;8.378;2023-03-03T19:07:19;3.30;94.60
35381;DHT22;21486;51.916;8.378;2023-03-03T19:09:55;3.40;94.30
35381;DHT22;21486;51.916;8.378;2023-03-03T19:12:40;3.40;94.00
35381;DHT22;21486;51.916;8.378;2023-03-03T19:15:11;3.50;93.90
35381;DHT22;21486;51.916;8.378;2023-03-03T19:17:52;3.50;93.80
35381;DHT22;21486;51.916;8.378;2023-03-03T19:20:18;3.50;93.70
35381;DHT22;21486;51.916;8.378;2023-03-03T19:22:47;3.50;94.60
35381;DHT22;21486;51.916;8.378;2023-03-03T19:25:15;3.60;93.60
35381;DHT22;21486;51.916;8.378;2023-03-03T19:30:10;3.50;93.20
35381;DHT22;21486;51.916;8.378;2023-03-03T19:33:03;3.50;93.40
35381;DHT22;21486;51.916;8.378;2023-03-03T19:35:27;3.50;93.60
35381;DHT22;21486;51.916;8.378;2023-03-03T19:40:47;3.50;93.70
35381;DHT22;21486;51.916;8.378;2023-03-03T19:43:28;3.50;93.80
35381;DHT22;21486;51.916;8.378;2023-03-03T19:48:47;3.50;93.70
35381;DHT22;21486;51.916;8.378;2023-03-03T19:51:37;3.40;93.80
35381;DHT22;21486;51.916;8.378;2023-03-03T19:56:41;3.40;93.80
35381;DHT22;21486;51.916;8.378;2023-03-03T19:59:17;3.50;93.80
35381;DHT22;21486;51.916;8.378;2023-03-03T20:01:55;3.50;93.60
35381;DHT22;21486;51.916;8.378;2023-03-03T20:09:35;3.60;93.50
35381;DHT22;21486;51.916;8.378;2023-03-03T20:15:11;3.60;93.80
35381;DHT22;21486;51.916;8.378;2023-03-03T20:17:42;3.60;93.60
35381;DHT22;21486;51.916;8.378;2023-03-03T20:20:14;3.50;93.70
35381;DHT22;21486;51.916;8.378;2023-03-03T20:22:51;3.50;93.70
35381;DHT22;21486;51.916;8.378;2023-03-03T20:25:33;3.50;93.80
35381;DHT22;21486;51.916;8.378;2023-03-03T20:28:04;3.60;93.90
35381;DHT22;21486;51.916;8.378;2023-03-03T20:30:34;3.50;93.90
35381;DHT22;21486;51.916;8.378;2023-03-03T20:33:22;3.60;94.00
35381;DHT22;21486;51.916;8.378;2023-03-03T20:35:56;3.50;94.10
35381;DHT22;21486;51.916;8.378;2023-03-03T20:41:21;3.50;94.00
35381;DHT22;21486;51.916;8.378;2023-03-03T20:43:59;3.50;94.00
35381;DHT22;21486;51.916;8.378;2023-03-03T20:54:26;3.50;94.20
35381;DHT22;21486;51.916;8.378;2023-03-03T20:57:02;3.50;94.20